Time;durP1;ratioP1;P1;durP2;ratioP2;P2;SDS_P1;SDS_P2;PMS_P1;PMS_P2;Temp;Humidity;BMP_temperature;BMP_pressure;BME280_temperature;BME280_humidity;BME280_pressure;Samples;Min_cycle;Max_cycle;Signal;HPM_P1;HPM_P2
2022/11/03 00:00:59;;;;;;;1999.90;999.90;;;;;;;3.28;100.00;101284.63;5007938;28;20033;-73
2022/11/03 00:03:26;;;;;;;1999.90;999.90;;;;;;;3.27;100.00;101288.09;5000143;28;20034;-73
2022/11/03 00:06:06;;;;;;;1999.90;999.90;;;;;;;3.22;100.00;101288.72;5008113;28;20081;-72
2022/11/03 00:08:37;;;;;;;1999.90;999.90;;;;;;;3.22;100.00;101280.91;5003950;28;20092;-73
2022/11/03 00:11:05;;;;;;;1999.90;999.90;;;;;;;3.21;100.00;101286.97;5005746;28;20037;-73
2022/11/03 00:13:31;;;;;;;1999.90;999.90;;;;;;;3.16;100.00;101267.66;5011917;28;20044;-73
2022/11/03 00:15:56;;;;;;;1999.90;999.90;;;;;;;3.11;100.00;101274.44;5002724;28;20030;-72
2022/11/03 00:18:21;;;;;;;1999.90;999.90;;;;;;;3.07;100.00;101274.31;5007396;28;20555;-73
2022/11/03 00:20:58;;;;;;;1999.90;999.90;;;;;;;3.06;100.00;101274.25;5007966;28;20042;-73
2022/11/03 00:23:25;;;;;;;1999.90;999.90;;;;;;;3.04;100.00;101270.72;5009022;28;20552;-72
2022/11/03 00:25:51;;;;;;;1999.90;999.90;;;;;;;3.02;100.00;101270.66;5004100;28;20034;-72
2022/11/03 00:28:16;;;;;;;1999.90;999.90;;;;;;;2.99;100.00;101265.34;5003579;28;20516;-72
2022/11/03 00:30:41;;;;;;;1999.90;999.90;;;;;;;2.99;100.00;101259.25;5004242;28;20048;-73
2022/11/03 00:33:07;;;;;;;1999.90;999.90;;;;;;;3.01;100.00;101263.69;5004583;28;20041;-73
2022/11/03 00:35:32;;;;;;;1999.90;999.90;;;;;;;3.01;100.00;101258.47;5005144;28;20056;-72
2022/11/03 00:37:58;;;;;;;1999.90;999.90;;;;;;;2.98;100.00;101252.22;5001919;28;20038;-73
2022/11/03 00:40:23;;;;;;;1999.90;999.90;;;;;;;2.98;100.00;101247.00;5005609;28;20052;-73
2022/11/03 00:42:48;;;;;;;1999.90;999.90;;;;;;;2.95;100.00;101253.00;5004088;28;20030;-73
2022/11/03 00:45:14;;;;;;;1999.90;999.90;;;;;;;2.97;100.00;101246.13;5003268;28;20105;-72
2022/11/03 00:48:28;;;;;;;1999.90;999.90;;;;;;;2.97;100.00;101246.13;5002653;28;20034;-73
2022/11/03 00:50:24;;;;;;;1999.90;999.90;;;;;;;2.91;100.00;101245.94;5006944;28;20388;-73
2022/11/03 00:52:49;;;;;;;1999.90;999.90;;;;;;;2.90;100.00;101243.25;5004972;28;20029;-72
2022/11/03 00:55:15;;;;;;;1999.90;999.90;;;;;;;2.86;100.00;101234.44;5005715;28;20034;-72
2022/11/03 00:57:40;;;;;;;1999.90;999.90;;;;;;;2.82;100.00;101243.84;5004663;28;20029;-72
2022/11/03 01:00:06;;;;;;;1999.90;999.90;;;;;;;2.80;100.00;101237.72;5003599;28;20405;-73
2022/11/03 01:02:31;;;;;;;1999.90;999.90;;;;;;;2.74;100.00;101240.06;5006444;28;20088;-73
2022/11/03 01:07:41;;;;;;;1999.90;999.90;;;;;;;2.69;100.00;101243.34;5000613;28;20543;-72
2022/11/03 01:10:08;;;;;;;1999.90;999.90;;;;;;;2.66;100.00;101246.72;5002458;28;20043;-72
2022/11/03 01:12:33;;;;;;;1999.90;999.90;;;;;;;2.68;100.00;101252.88;5005061;28;20437;-73
2022/11/03 01:14:59;;;;;;;1999.90;999.90;;;;;;;2.66;100.00;101251.94;5001860;28;20125;-73
2022/11/03 01:17:26;;;;;;;1999.90;999.90;;;;;;;2.54;100.00;101255.00;5004170;28;20073;-73
2022/11/03 01:19:52;;;;;;;1999.90;999.90;;;;;;;2.53;100.00;101247.09;5001318;28;20125;-73
2022/11/03 01:22:19;;;;;;;1999.90;999.90;;;;;;;2.61;100.00;101251.75;5004895;28;20041;-72
2022/11/03 01:24:45;;;;;;;1999.90;999.90;;;;;;;2.62;100.00;101248.34;5002670;28;20026;-72
2022/11/03 01:27:13;;;;;;;1999.90;999.90;;;;;;;2.63;100.00;101247.50;5003019;28;20042;-73
2022/11/03 01:29:39;;;;;;;1999.90;999.90;;;;;;;2.61;100.00;101243.06;5001088;28;20437;-73
2022/11/03 01:32:05;;;;;;;1999.90;999.90;;;;;;;2.64;100.00;101245.78;5001895;28;20042;-72
2022/11/03 01:34:31;;;;;;;1999.90;999.90;;;;;;;2.67;100.00;101245.00;5003289;28;20049;-72
2022/11/03 01:36:57;;;;;;;1999.90;999.90;;;;;;;2.72;100.00;101238.25;5003636;28;20680;-72
2022/11/03 01:39:22;;;;;;;1999.90;999.90;;;;;;;2.74;100.00;101231.38;5002839;28;20382;-73
2022/11/03 01:41:50;;;;;;;1999.90;999.90;;;;;;;2.72;100.00;101227.81;5002991;28;20038;-72
2022/11/03 01:44:15;;;;;;;1999.90;999.90;;;;;;;2.70;100.00;101225.19;5000785;28;20030;-72
2022/11/03 01:46:55;;;;;;;1999.90;999.90;;;;;;;2.70;100.00;101230.38;5003494;28;20056;-72
2022/11/03 01:49:26;;;;;;;1999.90;999.90;;;;;;;2.73;100.00;101234.81;5003559;28;20129;-73
2022/11/03 01:51:57;;;;;;;1999.90;999.90;;;;;;;2.73;100.00;101234.81;5002732;28;20454;-73
2022/11/03 01:54:26;;;;;;;1999.90;999.90;;;;;;;2.74;100.00;101231.38;5006250;28;20408;-73
2022/11/03 01:56:51;;;;;;;1999.90;999.90;;;;;;;2.64;100.00;101227.53;5000820;28;20531;-73
2022/11/03 01:59:21;;;;;;;1999.90;999.90;;;;;;;2.61;100.00;101230.91;5015177;28;20042;-73
2022/11/03 02:01:47;;;;;;;1999.90;999.90;;;;;;;2.64;100.00;101230.13;5007191;28;20396;-73
2022/11/03 02:04:18;;;;;;;1999.90;999.90;;;;;;;2.64;100.00;101231.03;5002494;28;20044;-72
2022/11/03 02:06:46;;;;;;;1999.90;999.90;;;;;;;2.66;100.00;101218.06;5003956;28;20192;-73
2022/11/03 02:09:11;;;;;;;1999.90;999.90;;;;;;;2.66;100.00;101232.81;5000306;28;20030;-73
2022/11/03 02:14:21;;;;;;;1999.90;999.90;;;;;;;2.64;100.00;101220.59;5003566;28;20519;-72
2022/11/03 02:16:53;;;;;;;1999.90;999.90;;;;;;;2.64;100.00;101215.38;4995642;28;20038;-73
2022/11/03 02:19:42;;;;;;;1999.90;999.90;;;;;;;2.63;100.00;101197.97;5001966;28;20038;-73
2022/11/03 02:22:45;;;;;;;1999.90;999.90;;;;;;;2.68;100.00;101205.09;5017393;28;20452;-73
2022/11/03 02:25:18;;;;;;;1999.90;999.90;;;;;;;2.67;100.00;101203.31;4985612;28;20049;-73
2022/11/03 02:27:44;;;;;;;1999.90;999.90;;;;;;;2.71;100.00;101194.78;5001236;28;20121;-73
2022/11/03 02:30:09;;;;;;;1999.90;999.90;;;;;;;2.73;100.00;101195.72;5001786;28;20125;-73
2022/11/03 02:32:54;;;;;;;1999.90;999.90;;;;;;;2.70;100.00;101206.00;5003732;28;20034;-73
2022/11/03 02:35:35;;;;;;;1999.90;999.90;;;;;;;2.69;100.00;101202.53;5001622;28;20676;-73
2022/11/03 02:38:04;;;;;;;1999.90;999.90;;;;;;;2.66;100.00;101193.72;5000657;28;20046;-73
2022/11/03 02:40:34;;;;;;;1999.90;999.90;;;;;;;2.63;100.00;101184.94;5003789;28;20033;-73
2022/11/03 02:43:02;;;;;;;1999.90;999.90;;;;;;;2.65;100.00;101179.81;5000224;28;20116;-72
2022/11/03 02:45:29;;;;;;;1999.90;999.90;;;;;;;2.64;100.00;101178.00;4999613;28;20052;-73
2022/11/03 02:47:58;;;;;;;1999.90;999.90;;;;;;;2.64;100.00;101178.00;5002334;28;20034;-72
2022/11/03 02:50:29;;;;;;;1999.90;999.90;;;;;;;2.63;100.00;101177.13;5001817;28;20038;-73
2022/11/03 02:52:54;;;;;;;1999.90;999.90;;;;;;;2.61;100.00;101162.28;5009988;28;20512;-73
2022/11/03 02:55:34;;;;;;;1999.90;999.90;;;;;;;2.60;100.00;101164.00;5002972;28;20097;-73
2022/11/03 02:58:16;;;;;;;1999.90;999.90;;;;;;;2.57;100.00;101169.09;5004511;28;20042;-72
2022/11/03 03:00:51;;;;;;;1999.90;999.90;;;;;;;2.59;100.00;101166.53;5008827;28;20038;-72
2022/11/03 03:03:23;;;;;;;1999.90;999.90;;;;;;;2.59;100.00;101172.66;5009980;28;20030;-72
2022/11/03 03:05:53;;;;;;;1999.90;999.90;;;;;;;2.59;100.00;101164.84;5006602;28;20037;-72
2022/11/03 03:08:21;;;;;;;1999.90;999.90;;;;;;;2.54;100.00;101161.19;5005933;28;20496;-73
2022/11/03 03:10:47;;;;;;;1999.90;999.90;;;;;;;2.55;100.00;101157.72;5007308;28;20061;-73
2022/11/03 03:13:17;;;;;;;1999.90;999.90;;;;;;;2.54;100.00;101162.88;5003640;28;20042;-72
2022/11/03 03:15:54;;;;;;;1999.90;999.90;;;;;;;2.57;100.00;101160.41;5005141;28;20049;-73
2022/11/03 03:18:57;;;;;;;1999.90;999.90;;;;;;;2.58;100.00;101157.84;5006714;28;20377;-73
2022/11/03 03:21:28;;;;;;;1999.90;999.90;;;;;;;2.60;100.00;101152.69;5006692;28;20084;-72
2022/11/03 03:24:07;;;;;;;1999.90;999.90;;;;;;;2.63;100.00;101153.69;5006128;28;20038;-72
2022/11/03 03:26:41;;;;;;;1999.90;999.90;;;;;;;2.64;100.00;101147.63;5004525;28;20042;-72
2022/11/03 03:29:13;;;;;;;1999.90;999.90;;;;;;;2.66;100.00;101139.00;5003451;28;20125;-73
2022/11/03 03:31:43;;;;;;;1999.90;999.90;;;;;;;2.68;100.00;101134.72;5005390;28;20038;-73
2022/11/03 03:34:09;;;;;;;1999.90;999.90;;;;;;;2.67;100.00;101127.72;5004483;28;20096;-72
2022/11/03 03:36:39;;;;;;;1999.90;999.90;;;;;;;2.62;100.00;101123.25;5006938;28;20046;-73
2022/11/03 03:39:06;;;;;;;1999.90;999.90;;;;;;;2.64;100.00;101120.69;5003110;28;20481;-72
2022/11/03 03:41:33;;;;;;;1999.90;999.90;;;;;;;2.63;100.00;101117.19;5006718;28;20100;-72
2022/11/03 03:44:04;;;;;;;1999.90;999.90;;;;;;;2.64;100.00;101121.56;5006928;28;20034;-73
2022/11/03 03:46:40;;;;;;;1999.90;999.90;;;;;;;2.68;100.00;101119.09;5008960;28;20088;-73
2022/11/03 03:49:06;;;;;;;1999.90;999.90;;;;;;;2.71;100.00;101106.16;5004087;28;20038;-72
2022/11/03 03:51:33;;;;;;;1999.90;999.90;;;;;;;2.76;100.00;101110.69;5008248;28;20041;-72
2022/11/03 03:53:58;;;;;;;1999.90;999.90;;;;;;;2.80;100.00;101109.97;5005692;28;20046;-73
2022/11/03 03:56:39;;;;;;;1999.90;999.90;;;;;;;2.87;100.00;101113.66;5006108;28;20037;-73
2022/11/03 03:59:04;;;;;;;1999.90;999.90;;;;;;;2.94;100.00;101097.41;5004812;28;20088;-72
2022/11/03 04:01:29;;;;;;;1999.90;999.90;;;;;;;2.99;100.00;101088.03;5004916;28;20038;-72
2022/11/03 04:03:55;;;;;;;1999.90;999.90;;;;;;;3.03;100.00;101094.22;5005731;28;20088;-72
2022/11/03 04:06:20;;;;;;;1999.90;999.90;;;;;;;3.03;100.00;101078.56;5003662;28;20034;-73
2022/11/03 04:08:45;;;;;;;1999.90;999.90;;;;;;;3.06;100.00;101078.66;5005146;28;20037;-73
2022/11/03 04:22:15;;;;;;;1999.90;999.90;;;;;;;3.23;100.00;101067.06;5005465;28;20043;-73
2022/11/03 04:24:45;;;;;;;1999.90;999.90;;;;;;;3.28;100.00;101064.59;5005405;28;20412;-73
2022/11/03 04:27:27;;;;;;;1999.90;999.90;;;;;;;3.32;100.00;101055.16;5002810;28;20042;-73
2022/11/03 04:29:56;;;;;;;1999.90;999.90;;;;;;;3.33;100.00;101052.59;5017516;28;20045;-73
2022/11/03 04:32:21;;;;;;;1999.90;999.90;;;;;;;3.33;100.00;101070.88;5007138;28;20121;-73
2022/11/03 04:34:47;;;;;;;1999.90;999.90;;;;;;;3.32;100.00;101058.63;5003670;28;20042;-73
2022/11/03 04:37:14;;;;;;;1999.90;999.90;;;;;;;3.25;100.00;101054.97;5005630;28;20126;-73
2022/11/03 04:39:39;;;;;;;1999.90;999.90;;;;;;;3.22;100.00;101053.97;5004995;28;20560;-73
2022/11/03 04:42:20;;;;;;;1999.90;999.90;;;;;;;3.20;100.00;101045.22;5007867;28;20091;-73
2022/11/03 04:44:47;;;;;;;1999.90;999.90;;;;;;;3.17;100.00;101047.72;5004375;28;20069;-73
2022/11/03 04:47:15;;;;;;;1999.90;999.90;;;;;;;3.16;100.00;101056.38;5001407;28;20069;-73
2022/11/03 04:49:41;;;;;;;1999.90;999.90;;;;;;;3.14;100.00;101056.31;5005230;28;20021;-73
2022/11/03 04:52:16;;;;;;;1999.90;999.90;;;;;;;3.10;100.00;101054.47;5004750;28;20504;-73
2022/11/03 04:54:43;;;;;;;1999.90;999.90;;;;;;;3.05;100.00;101056.03;5004681;28;20053;-73
2022/11/03 04:57:13;;;;;;;1999.90;999.90;;;;;;;3.02;100.00;101053.34;5001347;28;20485;-73
2022/11/03 04:59:40;;;;;;;1999.90;999.90;;;;;;;3.00;100.00;101058.50;5005603;28;20052;-72
2022/11/03 05:02:11;;;;;;;1999.90;999.90;;;;;;;3.01;100.00;101060.28;5006915;28;20034;-72
2022/11/03 05:04:37;;;;;;;1999.90;999.90;;;;;;;2.99;100.00;101056.72;4999997;28;20045;-72
2022/11/03 05:07:17;;;;;;;1999.90;999.90;;;;;;;2.95;100.00;101049.63;5004805;28;20038;-73
2022/11/03 05:09:42;;;;;;;1999.90;999.90;;;;;;;2.94;100.00;101052.19;5004521;28;20451;-72
2022/11/03 05:12:08;;;;;;;1999.90;999.90;;;;;;;2.92;100.00;101049.53;5008604;28;20095;-72
2022/11/03 05:14:36;;;;;;;1999.90;999.90;;;;;;;2.88;100.00;101046.75;5010615;28;20037;-72
2022/11/03 05:17:06;;;;;;;1999.90;999.90;;;;;;;2.82;100.00;101048.31;5005368;28;20043;-74
2022/11/03 05:19:33;;;;;;;1999.90;999.90;;;;;;;2.74;100.00;101043.69;5008179;28;20041;-72
2022/11/03 05:22:00;;;;;;;1999.90;999.90;;;;;;;2.73;100.00;101052.38;5004831;28;20123;-71
2022/11/03 05:24:26;;;;;;;1999.90;999.90;;;;;;;2.71;100.00;101051.44;5005623;28;20061;-71
2022/11/03 05:26:54;;;;;;;1999.90;999.90;;;;;;;2.69;100.00;101043.53;5005825;28;20515;-71
2022/11/03 05:29:34;;;;;;;1999.90;999.90;;;;;;;2.68;100.00;101043.50;5004109;28;20461;-71
2022/11/03 05:32:00;;;;;;;1999.90;999.90;;;;;;;2.66;100.00;101046.03;5001242;28;20081;-71
2022/11/03 05:34:39;;;;;;;1999.90;999.90;;;;;;;2.68;100.00;101036.56;5008435;28;20084;-72
2022/11/03 05:37:04;;;;;;;1999.90;999.90;;;;;;;2.58;100.00;101044.91;5004242;28;20034;-72
2022/11/03 05:39:36;;;;;;;1999.90;999.90;;;;;;;2.53;100.00;101039.53;5005335;28;20050;-71
2022/11/03 05:42:21;;;;;;;1999.90;999.90;;;;;;;2.54;100.00;101030.91;5004866;28;20036;-72
2022/11/03 05:44:47;;;;;;;1999.90;999.90;;;;;;;2.51;100.00;101028.16;5006115;28;20053;-72
2022/11/03 05:47:25;;;;;;;1999.90;999.90;;;;;;;2.51;100.00;101030.75;5004623;28;20104;-72
2022/11/03 05:49:54;;;;;;;1999.90;999.90;;;;;;;2.53;100.00;101026.50;5000514;28;20412;-72
2022/11/03 05:52:25;;;;;;;1999.90;999.90;;;;;;;2.54;100.00;101025.69;5002254;28;20477;-72
2022/11/03 05:54:57;;;;;;;1999.90;999.90;;;;;;;2.55;100.00;101030.06;5000942;28;20042;-71
2022/11/03 05:57:24;;;;;;;1999.90;999.90;;;;;;;2.56;100.00;101029.19;5005484;28;20061;-72
2022/11/03 05:59:50;;;;;;;1999.90;999.90;;;;;;;2.53;100.00;101031.72;5007657;28;20112;-71
2022/11/03 06:02:48;;;;;;;1999.90;999.90;;;;;;;2.47;100.00;101035.84;5005831;28;20125;-71
2022/11/03 06:05:18;;;;;;;1999.90;999.90;;;;;;;2.49;100.00;101026.34;5000627;28;20050;-71
2022/11/03 06:07:44;;;;;;;1999.90;999.90;;;;;;;2.50;100.00;101015.97;5000733;28;20482;-72
2022/11/03 06:10:22;;;;;;;1999.90;999.90;;;;;;;2.53;100.00;101017.81;5002485;28;20112;-71
2022/11/03 06:12:47;;;;;;;1999.90;999.90;;;;;;;2.50;100.00;101010.75;5003346;28;20038;-71
2022/11/03 06:15:42;;;;;;;1999.90;999.90;;;;;;;2.53;100.00;101007.38;5005443;28;20100;-71
2022/11/03 06:18:31;;;;;;;1999.90;999.90;;;;;;;2.58;100.00;101003.22;5004489;28;20057;-72
2022/11/03 06:21:18;;;;;;;1999.90;999.90;;;;;;;2.63;100.00;101002.53;4999729;28;20606;-72
2022/11/03 06:23:43;;;;;;;1999.90;999.90;;;;;;;2.71;100.00;101012.31;5000170;28;20129;-72
2022/11/03 06:26:17;;;;;;;1999.90;999.90;;;;;;;2.80;100.00;101003.09;5002172;28;20137;-71
2022/11/03 06:28:44;;;;;;;1999.90;999.90;;;;;;;2.93;100.00;101006.09;4999577;28;20045;-71
2022/11/03 06:31:22;;;;;;;1999.90;999.90;;;;;;;3.02;100.00;101006.41;4999996;28;20038;-71
2022/11/03 06:33:48;;;;;;;1999.90;999.90;;;;;;;3.11;100.00;100997.97;5001380;28;20033;-72
2022/11/03 06:36:24;;;;;;;1999.90;999.90;;;;;;;3.20;100.00;100991.31;5005147;28;20113;-71
2022/11/03 06:38:54;;;;;;;1999.90;999.90;;;;;;;3.29;100.00;100998.53;5000603;28;20044;-72
2022/11/03 06:41:24;;;;;;;1999.90;999.90;;;;;;;3.36;100.00;100997.91;5001292;28;20029;-71
2022/11/03 06:43:50;;;;;;;1999.90;999.90;;;;;;;3.42;100.00;100990.25;5008779;28;20089;-72
2022/11/03 06:46:24;;;;;;;1999.90;999.90;;;;;;;3.50;100.00;100993.97;5002797;28;20041;-72
2022/11/03 06:48:52;;;;;;;1999.90;999.90;;;;;;;3.57;100.00;100999.41;5001185;28;20416;-72
2022/11/03 06:51:21;;;;;;;1999.90;999.90;;;;;;;3.59;100.00;100989.84;5004549;28;20042;-71
2022/11/03 06:53:49;;;;;;;1999.90;999.90;;;;;;;3.63;100.00;100992.59;5004277;28;20496;-72
2022/11/03 06:56:17;;;;;;;1999.90;999.90;;;;;;;3.64;100.00;100990.88;5003092;28;20066;-72
2022/11/03 06:58:43;;;;;;;1999.90;999.90;;;;;;;3.66;100.00;100989.22;5005110;28;20089;-71
2022/11/03 07:01:13;;;;;;;1999.90;999.90;;;;;;;3.72;100.00;100990.28;5002075;28;20443;-72
2022/11/03 07:03:39;;;;;;;1999.90;999.90;;;;;;;3.79;100.00;100988.72;4999688;28;20034;-72
2022/11/03 07:06:21;;;;;;;1999.90;999.90;;;;;;;3.86;100.00;100990.66;5005764;28;20411;-72
2022/11/03 07:09:08;;;;;;;1999.90;999.90;;;;;;;3.82;100.00;100986.19;5002902;28;20037;-71
2022/11/03 07:11:43;;;;;;;1999.90;999.90;;;;;;;3.81;100.00;100979.22;4992515;28;20054;-72
2022/11/03 07:14:16;;;;;;;1999.90;999.90;;;;;;;3.84;100.00;100981.91;5000684;28;20045;-72
2022/11/03 07:16:45;;;;;;;1999.90;999.90;;;;;;;3.82;100.00;100980.09;5000139;28;20050;-72
2022/11/03 07:19:23;;;;;;;1999.90;999.90;;;;;;;3.86;100.00;100979.34;5005464;28;20045;-72
2022/11/03 07:21:55;;;;;;;1999.90;999.90;;;;;;;3.91;100.00;100976.03;5006036;28;20053;-72
2022/11/03 07:24:26;;;;;;;1999.90;999.90;;;;;;;3.93;100.00;100979.56;5005917;28;20504;-72
2022/11/03 07:26:58;;;;;;;1999.90;999.90;;;;;;;3.99;100.00;100983.19;5000444;28;20038;-72
2022/11/03 07:29:27;;;;;;;1999.90;999.90;;;;;;;4.10;100.00;100980.00;5001218;28;20061;-72
2022/11/03 07:31:55;;;;;;;1999.90;999.90;;;;;;;4.23;100.00;100975.13;4998603;28;20047;-71
2022/11/03 07:34:24;;;;;;;1999.90;999.90;;;;;;;4.35;100.00;100971.13;5002363;28;20038;-72
2022/11/03 07:36:50;;;;;;;1999.90;999.90;;;;;;;4.47;100.00;100967.03;5001764;28;20042;-72
2022/11/03 07:39:18;;;;;;;1999.90;999.90;;;;;;;4.58;100.00;100968.19;5004764;28;20068;-72
2022/11/03 07:41:44;;;;;;;1999.90;999.90;;;;;;;4.61;100.00;100961.31;5008508;28;20040;-72
2022/11/03 07:44:15;;;;;;;1999.90;999.90;;;;;;;4.66;100.00;100957.91;5008425;28;20124;-72
2022/11/03 07:46:42;;;;;;;1999.90;999.90;;;;;;;4.72;100.00;100958.09;5006254;28;20084;-72
2022/11/03 07:49:20;;;;;;;1999.90;999.90;;;;;;;4.76;100.00;100966.03;5008659;28;20467;-72
2022/11/03 07:51:46;;;;;;;1999.90;999.90;;;;;;;4.86;100.00;100961.03;5011244;28;20092;-72
2022/11/03 07:54:33;;;;;;;1999.90;999.90;;;;;;;4.99;100.00;100955.25;5004660;28;20046;-72
2022/11/03 07:57:12;;;;;;;1999.90;999.90;;;;;;;5.11;100.00;100949.38;5003548;28;20434;-72
2022/11/03 07:59:45;;;;;;;1999.90;999.90;;;;;;;5.17;100.00;100947.81;5002616;28;20034;-72
2022/11/03 08:02:48;;;;;;;1999.90;999.90;;;;;;;5.24;100.00;100944.50;5006428;28;20608;-72
2022/11/03 08:05:13;;;;;;;1999.90;999.90;;;;;;;5.36;100.00;100937.75;5009724;28;20026;-71
2022/11/03 08:07:38;;;;;;;1999.90;999.90;;;;;;;5.47;100.00;100941.47;5010526;28;20488;-72
2022/11/03 08:10:06;;;;;;;1999.90;999.90;;;;;;;5.59;100.00;100938.25;5005522;28;20034;-72
2022/11/03 08:12:31;;;;;;;1999.90;999.90;;;;;;;5.67;100.00;100934.91;5008969;28;20133;-72
2022/11/03 08:14:56;;;;;;;1999.90;999.90;;;;;;;5.77;100.00;100928.13;5009906;28;20128;-71
2022/11/03 08:17:22;;;;;;;1999.90;999.90;;;;;;;5.88;100.00;100917.84;5010989;28;20069;-72
2022/11/03 08:19:47;;;;;;;1999.90;999.90;;;;;;;6.01;100.00;100911.16;5012482;28;20113;-72
2022/11/03 08:22:12;;;;;;;1999.90;999.90;;;;;;;6.13;100.00;100903.50;5002191;28;20042;-72
2022/11/03 08:24:37;;;;;;;1999.90;999.90;;;;;;;6.23;100.00;100900.19;5005905;28;20037;-72
2022/11/03 08:27:03;;;;;;;1999.90;999.90;;;;;;;6.40;100.00;100896.97;5004077;28;20046;-72
2022/11/03 08:29:29;;;;;;;1999.90;999.90;;;;;;;6.54;100.00;100898.97;5003677;28;20050;-72
2022/11/03 08:31:55;;;;;;;1999.90;999.90;;;;;;;6.71;100.00;100893.13;5003044;28;20034;-72
2022/11/03 08:34:20;;;;;;;1999.90;999.90;;;;;;;6.89;100.00;100887.25;5004869;28;20029;-72
2022/11/03 08:36:46;;;;;;;1999.90;999.90;;;;;;;7.03;100.00;100883.97;5003392;28;20101;-72
2022/11/03 08:39:11;;;;;;;1999.90;999.90;;;;;;;7.20;100.00;100885.91;5009971;28;20421;-72
2022/11/03 08:41:36;;;;;;;1999.90;999.90;;;;;;;7.34;100.00;100887.00;5004327;28;20030;-72
2022/11/03 08:44:02;;;;;;;1999.90;999.90;;;;;;;7.50;100.00;100881.94;5003195;28;20504;-72
2022/11/03 08:46:27;;;;;;;1999.90;999.90;;;;;;;7.61;100.00;100877.69;5002823;28;20069;-72
2022/11/03 08:48:53;;;;;;;1999.90;999.90;;;;;;;7.71;100.00;100871.69;5001480;28;20042;-72
2022/11/03 08:51:18;;;;;;;1999.90;999.90;;;;;;;7.84;100.00;100859.56;5006482;28;20093;-72
2022/11/03 08:53:44;;;;;;;1999.90;999.90;;;;;;;7.97;100.00;100857.94;5004827;28;20042;-72
2022/11/03 08:56:10;;;;;;;1999.90;999.90;;;;;;;8.11;100.00;100851.03;5001669;28;20026;-72
2022/11/03 08:58:36;;;;;;;1999.90;999.90;;;;;;;8.21;100.00;100849.38;5005535;28;20058;-72
2022/11/03 09:01:01;;;;;;;1999.90;999.90;;;;;;;8.34;100.00;100848.63;5005278;28;20062;-72
2022/11/03 09:03:26;;;;;;;1999.90;999.90;;;;;;;8.50;100.00;100844.38;5004400;28;20042;-72
2022/11/03 09:05:51;;;;;;;1999.90;999.90;;;;;;;8.65;100.00;100846.25;5010083;28;20049;-72
2022/11/03 09:08:17;;;;;;;1999.90;999.90;;;;;;;8.77;100.00;100841.91;5007313;28;20033;-72
2022/11/03 09:10:42;;;;;;;1999.90;999.90;;;;;;;8.90;100.00;100836.75;5006706;28;20053;-72
2022/11/03 09:13:08;;;;;;;1999.90;999.90;;;;;;;9.03;100.00;100829.78;5004700;28;20038;-72
2022/11/03 09:15:33;;;;;;;1999.90;999.90;;;;;;;9.16;100.00;100826.34;5008280;28;20467;-72
2022/11/03 09:17:59;;;;;;;1999.90;999.90;;;;;;;9.30;100.00;100818.47;5000566;28;20092;-72
2022/11/03 09:20:24;;;;;;;1999.90;999.90;;;;;;;9.41;100.00;100812.38;5004566;28;20095;-72
2022/11/03 09:22:49;;;;;;;1999.90;999.90;;;;;;;9.54;100.00;100808.03;5002338;28;20033;-72
2022/11/03 09:25:15;;;;;;;1999.90;999.90;;;;;;;9.71;100.00;100809.81;5001146;28;20046;-72
2022/11/03 09:27:40;;;;;;;1999.90;999.90;;;;;;;9.84;100.00;100795.78;5002096;28;20408;-72
2022/11/03 09:30:06;;;;;;;1999.90;999.90;;;;;;;10.02;99.93;100798.44;5002125;28;20452;-72
2022/11/03 09:32:32;;;;;;;1999.90;999.90;;;;;;;10.18;99.74;100785.25;4997335;28;20495;-72
2022/11/03 09:34:57;;;;;;;1999.90;999.90;;;;;;;10.29;97.49;100783.50;5004241;28;20484;-72
2022/11/03 09:37:22;;;;;;;1999.90;999.90;;;;;;;10.41;97.62;100783.50;5004507;28;20057;-72
2022/11/03 09:39:48;;;;;;;1999.90;999.90;;;;;;;10.53;97.11;100786.13;5007097;28;20117;-72
2022/11/03 09:42:15;;;;;;;1999.90;999.90;;;;;;;10.64;96.48;100785.22;5004630;28;20393;-72
2022/11/03 09:44:41;;;;;;;1999.90;999.90;;;;;;;10.79;95.18;100776.38;5002760;28;20033;-72
2022/11/03 09:47:15;;;;;;;1999.90;999.90;;;;;;;10.91;94.64;100769.28;5001522;28;20668;-72
2022/11/03 09:49:40;;;;;;;1999.90;999.90;;;;;;;11.07;93.29;100767.47;5004445;28;20029;-73
2022/11/03 09:52:05;;;;;;;1999.90;999.90;;;;;;;11.21;92.06;100767.38;5001598;28;20507;-73
2022/11/03 09:54:31;;;;;;;1999.90;999.90;;;;;;;11.30;90.32;100761.19;4999719;28;20050;-72
2022/11/03 09:57:08;;;;;;;1999.90;999.90;;;;;;;11.39;89.33;100751.44;5000251;28;20041;-72
2022/11/03 09:59:33;;;;;;;1999.90;999.90;;;;;;;11.47;88.89;100754.03;5001876;28;20117;-72
2022/11/03 10:01:58;;;;;;;1999.90;999.90;;;;;;;11.62;88.53;100753.06;5003452;28;20130;-72
2022/11/03 10:04:26;;;;;;;1999.90;999.90;;;;;;;11.79;87.78;100745.03;5005508;28;20038;-72
2022/11/03 10:06:57;;;;;;;1999.90;999.90;;;;;;;11.91;86.28;100741.44;5001432;28;20539;-72
2022/11/03 10:09:24;;;;;;;1999.90;999.90;;;;;;;12.01;86.84;100738.69;5003327;28;20040;-72
2022/11/03 10:11:51;;;;;;;1999.90;999.90;;;;;;;12.14;87.00;100731.53;5004468;28;20511;-72
2022/11/03 10:14:18;;;;;;;1999.90;999.90;;;;;;;12.27;86.23;100727.00;5002549;28;20151;-72
2022/11/03 10:16:51;;;;;;;1999.90;999.90;;;;;;;12.38;84.68;100709.22;5001574;28;20026;-72
2022/11/03 10:19:17;;;;;;;1999.90;999.90;;;;;;;12.50;85.06;100702.94;5000106;28;20041;-72
2022/11/03 10:21:42;;;;;;;1999.90;999.90;;;;;;;12.59;83.20;100696.63;5007548;28;20031;-72
2022/11/03 10:24:13;;;;;;;1999.90;999.90;;;;;;;12.68;82.51;100696.50;5002829;28;20049;-72
2022/11/03 10:26:43;;;;;;;1999.90;999.90;;;;;;;12.79;83.09;100689.34;5001656;28;20107;-72
2022/11/03 10:29:22;;;;;;;1999.90;999.90;;;;;;;12.89;81.39;100684.78;5000089;28;20046;-72
2022/11/03 10:31:50;;;;;;;1999.90;999.90;;;;;;;12.94;81.05;100680.28;5001620;28;20035;-72
2022/11/03 10:34:33;;;;;;;1999.90;999.90;;;;;;;13.05;79.54;100675.75;5000573;28;20050;-72
2022/11/03 10:37:15;;;;;;;1999.90;999.90;;;;;;;13.11;78.02;100669.47;5003124;28;20038;-72
2022/11/03 10:39:41;;;;;;;1999.90;999.90;;;;;;;13.24;78.83;100660.44;4999447;28;20038;-72
2022/11/03 10:42:20;;;;;;;1999.90;999.90;;;;;;;13.38;78.66;100658.47;5030965;23;20236;-75
2022/11/03 10:44:46;;;;;;;1999.90;999.90;;;;;;;13.52;78.68;100655.63;5007539;28;20045;-74
2022/11/03 10:47:23;;;;;;;1999.90;999.90;;;;;;;13.61;77.90;100653.72;5010556;28;20026;-75
2022/11/03 10:49:49;;;;;;;1999.90;999.90;;;;;;;13.69;77.85;100646.50;5015489;28;20033;-74
2022/11/03 10:52:21;;;;;;;1999.90;999.90;;;;;;;13.87;76.61;100645.31;5010954;28;20056;-75
2022/11/03 10:54:48;;;;;;;1999.90;999.90;;;;;;;14.01;75.74;100630.88;5010348;28;20033;-75
2022/11/03 10:57:14;;;;;;;1999.90;999.90;;;;;;;14.12;74.98;100619.19;5008760;28;20037;-75
2022/11/03 10:59:40;;;;;;;1999.90;999.90;;;;;;;14.20;74.24;100617.25;5012867;28;20459;-75
2022/11/03 11:02:24;;;;;;;1999.90;999.90;;;;;;;14.30;72.25;100613.50;5011040;28;20030;-75
2022/11/03 11:04:56;;;;;;;1999.90;999.90;;;;;;;14.41;73.47;100608.00;5011426;28;20037;-75
2022/11/03 11:07:33;;;;;;;1999.90;999.90;;;;;;;14.52;71.63;100603.34;5012714;28;20474;-75
2022/11/03 11:10:06;;;;;;;1999.90;999.90;;;;;;;14.66;71.77;100601.28;5011227;28;20038;-75
2022/11/03 11:12:31;;;;;;;1999.90;999.90;;;;;;;14.81;72.10;100594.75;5006552;28;20121;-74
2022/11/03 11:14:59;;;;;;;1999.90;999.90;;;;;;;14.92;71.83;100591.00;5011607;28;20128;-74